Time;durP1;ratioP1;P1;durP2;ratioP2;P2;SDS_P1;SDS_P2;PMS_P1;PMS_P2;Temp;Humidity;BMP_temperature;BMP_pressure;BME280_temperature;BME280_humidity;BME280_pressure;Samples;Min_cycle;Max_cycle;Signal;HPM_P1;HPM_P2
2022/06/10 00:01:39;;;;;;;21.40;2.83;;;;;;;11.41;99.39;100485.38;5010342;28;20037;-77
2022/06/10 00:04:05;;;;;;;19.92;3.30;;;;;;;11.48;99.44;100493.53;5023804;28;20376;-76
2022/06/10 00:06:31;;;;;;;21.13;4.18;;;;;;;11.40;99.24;100486.38;4991162;28;20041;-76
2022/06/10 00:08:56;;;;;;;20.85;4.80;;;;;;;11.37;99.97;100492.16;5012086;28;20375;-76
2022/06/10 00:11:22;;;;;;;18.60;4.40;;;;;;;11.32;99.89;100489.19;4993488;28;20466;-76
2022/06/10 00:13:48;;;;;;;26.70;5.07;;;;;;;11.22;100.00;100483.28;5027549;28;20041;-76
2022/06/10 00:16:17;;;;;;;21.95;3.60;;;;;;;11.20;100.00;100483.44;5010582;28;20034;-76
2022/06/10 00:18:46;;;;;;;18.50;3.45;;;;;;;11.07;100.00;100452.84;5010941;28;20065;-77
2022/06/10 00:21:13;;;;;;;16.88;3.05;;;;;;;11.22;100.00;100483.28;5011949;28;20043;-77
2022/06/10 00:23:39;;;;;;;15.73;3.13;;;;;;;11.31;100.00;100467.84;4996132;28;20033;-76
2022/06/10 00:26:06;;;;;;;21.20;3.72;;;;;;;11.49;100.00;100454.84;5026772;28;20033;-77
2022/06/10 00:28:32;;;;;;;27.17;4.40;;;;;;;11.64;98.66;100444.00;4986534;28;20034;-76
2022/06/10 00:30:58;;;;;;;18.35;3.38;;;;;;;11.94;97.45;100470.88;5011184;28;20037;-76
2022/06/10 00:33:24;;;;;;;11.30;2.92;;;;;;;12.09;96.78;100459.03;5007218;28;20047;-76
2022/06/10 00:35:50;;;;;;;22.17;3.65;;;;;;;12.23;95.31;100459.97;5011605;28;20438;-76
2022/06/10 00:38:16;;;;;;;20.63;3.63;;;;;;;12.37;94.83;100457.38;4991516;28;20040;-76
2022/06/10 00:40:51;;;;;;;17.30;3.10;;;;;;;12.50;93.41;100449.41;5022302;28;20029;-77
2022/06/10 00:43:22;;;;;;;31.95;4.20;;;;;;;12.58;93.13;100456.50;4992033;28;20069;-76
2022/06/10 00:46:00;;;;;;;23.23;5.05;;;;;;;12.57;92.88;100455.69;5027858;28;20585;-76
2022/06/10 00:48:36;;;;;;;17.92;3.35;;;;;;;12.62;92.78;100455.06;5015193;28;20034;-76
2022/06/10 00:51:37;;;;;;;19.23;3.30;;;;;;;12.59;91.83;100442.81;5022362;28;20030;-78
2022/06/10 00:54:13;;;;;;;18.20;3.50;;;;;;;12.63;92.17;100454.06;5025379;28;20095;-78
2022/06/10 00:56:42;;;;;;;13.45;3.55;;;;;;;12.69;91.69;100458.66;5018066;28;20033;-77
2022/06/10 00:59:20;;;;;;;14.52;2.22;;;;;;;12.72;90.87;100459.09;5024922;28;20090;-77
2022/06/10 01:01:47;;;;;;;24.95;4.32;;;;;;;12.74;90.72;100443.56;5019328;28;20524;-77
2022/06/10 01:04:12;;;;;;;19.77;3.80;;;;;;;12.75;91.10;100457.88;5006768;28;20038;-77
2022/06/10 01:06:41;;;;;;;16.05;3.83;;;;;;;12.75;90.88;100458.72;5017754;28;20038;-76
2022/06/10 01:09:06;;;;;;;14.38;3.90;;;;;;;12.79;91.01;100452.94;5026418;28;20514;-76
2022/06/10 01:11:56;;;;;;;19.58;3.78;;;;;;;12.85;90.65;100444.03;5009780;28;20475;-76
2022/06/10 01:14:44;;;;;;;19.60;2.80;;;;;;;12.86;90.64;100448.38;4996043;28;20132;-76
2022/06/10 01:17:59;;;;;;;15.05;3.58;;;;;;;12.86;91.02;100445.69;5007227;28;20068;-77
2022/06/10 01:20:51;;;;;;;19.77;3.65;;;;;;;12.89;90.94;100456.09;4991497;28;20132;-75
2022/06/10 01:23:34;;;;;;;30.25;3.85;;;;;;;12.92;90.92;100453.00;5013729;28;20675;-77
2022/06/10 01:26:15;;;;;;;12.13;2.97;;;;;;;12.90;91.60;100455.06;5029400;28;20029;-77
2022/06/10 01:29:02;;;;;;;28.92;4.15;;;;;;;12.86;91.97;100461.88;5006993;28;20111;-76
2022/06/10 01:31:38;;;;;;;25.02;3.55;;;;;;;12.69;92.04;100437.91;5026090;28;20112;-77
2022/06/10 01:34:31;;;;;;;20.60;4.18;;;;;;;12.85;92.57;100466.44;5025627;28;20042;-76
2022/06/10 01:37:21;;;;;;;21.42;3.55;;;;;;;12.82;92.89;100449.81;5020949;28;20037;-76
2022/06/10 01:40:09;;;;;;;22.33;2.80;;;;;;;12.85;92.86;100471.00;5011242;28;20402;-77
2022/06/10 01:42:45;;;;;;;26.98;5.60;;;;;;;12.73;93.13;100463.47;5027513;28;20034;-76
2022/06/10 01:45:23;;;;;;;17.67;4.07;;;;;;;12.80;93.64;100477.00;5041378;28;20033;-77
2022/06/10 01:48:01;;;;;;;19.02;4.15;;;;;;;12.77;93.16;100470.13;5025341;28;20033;-75
2022/06/10 01:50:53;;;;;;;13.32;3.63;;;;;;;12.73;93.62;100466.19;5007678;28;20033;-76
2022/06/10 01:53:37;;;;;;;17.95;3.47;;;;;;;12.65;93.58;100462.78;5040039;28;20495;-76
2022/06/10 01:56:24;;;;;;;9.88;2.55;;;;;;;12.56;93.89;100464.78;5013768;28;20052;-77
2022/06/10 01:58:59;;;;;;;26.48;4.20;;;;;;;12.41;94.16;100467.59;5005853;28;20026;-76
2022/06/10 02:01:39;;;;;;;26.33;4.07;;;;;;;12.30;94.95;100468.97;5002736;28;20076;-76
2022/06/10 02:04:27;;;;;;;15.95;3.47;;;;;;;12.22;94.79;100447.50;4994919;28;20411;-76
2022/06/10 02:06:56;;;;;;;23.83;3.83;;;;;;;12.42;93.97;100471.94;5007101;28;20066;-76
2022/06/10 02:09:26;;;;;;;24.42;4.13;;;;;;;12.54;93.13;100474.94;5011458;28;20369;-77
2022/06/10 02:11:57;;;;;;;24.20;3.45;;;;;;;12.59;92.14;100448.22;5013046;28;20036;-75
2022/06/10 02:14:28;;;;;;;18.70;3.13;;;;;;;12.67;91.52;100455.31;5029107;28;20033;-77
2022/06/10 02:16:55;;;;;;;31.38;4.57;;;;;;;12.60;91.70;100466.06;5028220;28;20072;-76
2022/06/10 02:19:22;;;;;;;18.85;3.60;;;;;;;12.58;92.35;100460.03;5015145;28;20071;-77
2022/06/10 02:21:52;;;;;;;21.10;3.63;;;;;;;12.60;92.04;100458.00;5027949;28;20041;-75
2022/06/10 02:24:23;;;;;;;16.42;3.88;;;;;;;12.54;92.16;100453.34;5029154;28;20103;-77
2022/06/10 02:26:49;;;;;;;23.65;3.78;;;;;;;12.48;92.55;100454.16;4994787;28;20043;-76
2022/06/10 02:29:18;;;;;;;19.15;3.13;;;;;;;12.51;91.97;100456.44;5022830;28;20478;-76
2022/06/10 02:31:48;;;;;;;17.02;3.80;;;;;;;12.51;92.14;100464.53;5012858;28;20052;-76
2022/06/10 02:34:14;;;;;;;27.40;4.15;;;;;;;12.47;92.25;100449.81;5013888;28;20053;-78
2022/06/10 02:37:04;;;;;;;16.08;3.38;;;;;;;12.50;92.55;100449.41;5022150;28;20088;-76
2022/06/10 02:40:08;;;;;;;23.35;4.22;;;;;;;12.48;92.58;100451.47;4987074;28;20123;-77
2022/06/10 02:42:53;;;;;;;16.30;2.78;;;;;;;12.45;93.09;100451.84;5003620;28;20048;-77
2022/06/10 02:46:00;;;;;;;19.75;3.45;;;;;;;12.42;93.75;100446.84;4990205;28;20069;-76
2022/06/10 02:48:33;;;;;;;20.63;3.28;;;;;;;12.43;93.42;100448.50;5009766;28;20049;-76
2022/06/10 02:50:58;;;;;;;23.38;3.10;;;;;;;12.37;93.33;100433.94;5027028;28;20120;-76
2022/06/10 02:53:24;;;;;;;20.08;3.53;;;;;;;12.42;93.77;100446.84;4993064;28;20116;-76
2022/06/10 02:55:50;;;;;;;14.23;3.75;;;;;;;12.35;93.63;100446.78;5059129;28;20045;-76
2022/06/10 03:01:21;;;;;;;24.40;3.90;;;;;;;12.04;94.99;100444.44;5012103;28;20033;-77
2022/06/10 03:03:49;;;;;;;15.13;2.63;;;;;;;11.86;95.96;100421.50;5028355;28;20059;-75
2022/06/10 03:06:23;;;;;;;22.17;3.45;;;;;;;11.94;96.27;100438.56;5028534;28;20040;-76
2022/06/10 03:08:57;;;;;;;20.05;3.03;;;;;;;11.83;96.71;100434.50;5007749;28;20033;-76
2022/06/10 03:11:41;;;;;;;21.08;3.85;;;;;;;11.67;97.47;100438.25;5024137;28;20056;-78
2022/06/10 03:14:15;;;;;;;19.83;3.60;;;;;;;11.52;98.35;100430.22;5017863;28;20136;-76
2022/06/10 03:17:00;;;;;;;24.08;3.63;;;;;;;11.54;98.77;100440.81;5042500;28;20064;-76
2022/06/10 03:19:58;;;;;;;25.52;4.72;;;;;;;11.47;99.46;100439.88;5011271;28;20064;-75
2022/06/10 03:22:51;;;;;;;17.92;3.47;;;;;;;11.49;99.51;100445.94;5005590;28;20140;-75
2022/06/10 03:25:20;;;;;;;13.45;2.80;;;;;;;11.34;99.30;100425.25;5007333;28;20159;-75
2022/06/10 03:28:19;;;;;;;17.83;3.25;;;;;;;11.54;99.38;100443.50;5028409;28;20479;-78
2022/06/10 03:31:23;;;;;;;22.38;2.92;;;;;;;11.53;99.15;100431.88;5031773;28;20076;-76
2022/06/10 03:33:59;;;;;;;16.60;4.18;;;;;;;11.75;98.23;100457.00;5007618;28;20107;-76
2022/06/10 03:36:26;;;;;;;11.63;2.28;;;;;;;11.83;98.18;100451.47;5028032;28;20034;-76
2022/06/10 03:38:53;;;;;;;14.23;2.72;;;;;;;11.88;97.88;100443.69;4993573;28;20037;-76
2022/06/10 03:41:26;;;;;;;30.95;5.90;;;;;;;11.96;97.21;100450.81;5010091;28;20106;-76
2022/06/10 03:43:55;;;;;;;19.85;3.33;;;;;;;12.00;96.74;100440.47;4990910;28;20038;-76
2022/06/10 03:46:25;;;;;;;16.58;2.58;;;;;;;12.07;96.39;100454.84;5023690;28;20041;-76
2022/06/10 03:48:52;;;;;;;22.88;3.58;;;;;;;11.97;96.93;100457.03;5057251;28;20061;-76
2022/06/10 03:51:18;;;;;;;21.38;3.38;;;;;;;11.79;97.14;100455.56;5024759;28;20071;-76
2022/06/10 03:53:45;;;;;;;16.67;3.60;;;;;;;11.63;98.13;100459.31;5024701;28;20037;-76
2022/06/10 03:56:11;;;;;;;17.08;3.40;;;;;;;11.52;99.33;100445.53;5029361;28;20037;-75
2022/06/10 03:58:38;;;;;;;20.00;4.00;;;;;;;11.60;99.68;100456.19;4991756;28;20041;-77
2022/06/10 04:01:05;;;;;;;13.50;3.67;;;;;;;11.60;99.76;100448.13;4989493;28;20467;-77
2022/06/10 04:03:31;;;;;;;24.60;3.40;;;;;;;11.65;99.87;100457.28;5009917;28;20029;-77
2022/06/10 04:05:56;;;;;;;22.38;3.95;;;;;;;11.66;99.93;100458.94;5028868;28;20040;-75
2022/06/10 04:08:22;;;;;;;11.60;2.78;;;;;;;11.66;99.60;100447.34;5027883;28;20144;-77
2022/06/10 04:10:47;;;;;;;8.10;1.98;;;;;;;11.69;99.35;100455.03;5026013;28;20057;-78
2022/06/10 04:13:17;;;;;;;13.68;3.28;;;;;;;11.55;99.29;100451.38;5024956;28;20032;-78
2022/06/10 04:15:44;;;;;;;18.40;2.65;;;;;;;11.58;98.81;100450.16;5028097;28;20128;-77
2022/06/10 04:18:10;;;;;;;16.58;3.17;;;;;;;11.58;98.87;100459.06;4994945;28;20059;-78
2022/06/10 04:20:37;;;;;;;16.77;2.50;;;;;;;11.48;99.64;100457.69;5027849;28;20029;-77
2022/06/10 04:23:04;;;;;;;19.17;3.67;;;;;;;11.35;100.00;100456.53;5007527;28;20472;-77
2022/06/10 04:25:30;;;;;;;14.10;2.97;;;;;;;11.12;100.00;100428.91;5026147;28;20041;-77
2022/06/10 04:27:57;;;;;;;15.25;4.90;;;;;;;11.19;100.00;100443.25;5023843;28;20438;-76
2022/06/10 04:30:32;;;;;;;9.18;2.53;;;;;;;11.21;100.00;100458.19;5024388;28;20029;-78
2022/06/10 04:32:59;;;;;;;19.92;2.78;;;;;;;11.04;100.00;100427.16;5009376;28;20483;-77
2022/06/10 04:35:26;;;;;;;8.20;1.95;;;;;;;11.22;100.00;100459.06;5025639;28;20037;-76
2022/06/10 04:37:53;;;;;;;12.70;3.00;;;;;;;11.28;100.00;100460.16;5031172;28;20025;-78
2022/06/10 04:40:22;;;;;;;16.42;2.88;;;;;;;11.31;100.00;100457.91;4997030;28;20084;-77
2022/06/10 04:42:49;;;;;;;7.65;2.28;;;;;;;11.31;100.00;100466.00;5010389;28;20415;-77
2022/06/10 04:45:16;;;;;;;11.00;2.17;;;;;;;11.21;100.00;100447.44;4992683;28;20037;-77
2022/06/10 04:47:42;;;;;;;11.93;2.90;;;;;;;11.32;100.00;100467.66;5024375;28;20037;-76
2022/06/10 04:50:09;;;;;;;7.75;2.42;;;;;;;11.36;100.00;100471.66;4996414;28;20042;-77
2022/06/10 04:52:35;;;;;;;8.15;1.88;;;;;;;11.45;100.00;100466.97;5008988;28;20036;-77
2022/06/10 04:55:02;;;;;;;11.52;2.35;;;;;;;11.52;100.00;100464.38;5024341;28;20112;-78
2022/06/10 04:57:28;;;;;;;14.27;2.30;;;;;;;11.76;100.00;100464.03;5008033;28;20033;-77
2022/06/10 04:59:54;;;;;;;8.93;1.88;;;;;;;11.86;100.00;100458.38;5020931;28;20033;-78
2022/06/10 05:02:19;;;;;;;15.95;2.88;;;;;;;12.09;100.00;100463.56;5007556;28;20041;-77
2022/06/10 05:04:45;;;;;;;17.50;2.80;;;;;;;12.35;98.39;100473.75;5020131;28;20022;-78
2022/06/10 05:07:11;;;;;;;20.88;2.60;;;;;;;12.57;96.97;100466.47;5009968;28;20391;-77
2022/06/10 05:09:36;;;;;;;10.48;1.83;;;;;;;12.87;95.03;100469.78;5019950;28;20044;-77
2022/06/10 05:12:02;;;;;;;18.25;3.67;;;;;;;13.06;93.56;100465.53;5025784;28;20574;-77
2022/06/10 05:14:28;;;;;;;20.00;3.03;;;;;;;13.28;92.24;100466.28;5005735;28;20489;-78
2022/06/10 05:16:56;;;;;;;19.55;2.88;;;;;;;13.46;90.86;100465.75;5008219;28;20036;-77
2022/06/10 05:19:22;;;;;;;23.35;4.00;;;;;;;13.66;89.66;100465.00;5023184;28;20111;-78
2022/06/10 05:21:48;;;;;;;24.50;3.97;;;;;;;13.82;88.74;100453.81;5010177;28;20034;-76
2022/06/10 05:24:14;;;;;;;13.50;3.10;;;;;;;13.99;87.66;100457.78;5033957;28;20037;-77
2022/06/10 05:26:40;;;;;;;22.05;3.08;;;;;;;14.20;86.59;100455.94;5018714;28;20033;-77
2022/06/10 05:29:06;;;;;;;11.27;3.22;;;;;;;14.43;85.20;100456.38;5036365;28;20402;-77
2022/06/10 05:31:31;;;;;;;11.23;2.50;;;;;;;14.69;83.57;100458.25;5028665;28;20087;-76
2022/06/10 05:36:42;;;;;;;11.88;2.13;;;;;;;15.08;80.89;100459.22;5029583;28;20029;-77
2022/06/10 05:39:08;;;;;;;15.55;3.40;;;;;;;15.30;80.15;100462.47;5024432;28;20045;-78
2022/06/10 05:44:17;;;;;;;16.90;2.88;;;;;;;15.54;77.84;100460.91;5028506;28;20109;-76
2022/06/10 05:46:46;;;;;;;23.85;3.70;;;;;;;15.63;77.73;100453.38;5028981;28;20025;-76
2022/06/10 05:49:12;;;;;;;21.83;3.17;;;;;;;15.82;76.09;100465.16;5024284;28;20045;-77
2022/06/10 05:51:38;;;;;;;11.43;3.05;;;;;;;16.00;74.87;100467.97;4998924;28;20107;-77
2022/06/10 05:54:04;;;;;;;15.68;2.83;;;;;;;16.19;73.61;100465.34;5009902;28;20124;-76
2022/06/10 05:56:30;;;;;;;17.88;3.17;;;;;;;16.40;72.50;100461.44;5029328;28;20510;-77
2022/06/10 05:58:56;;;;;;;15.02;3.13;;;;;;;16.42;72.21;100464.75;5011408;28;20061;-77
2022/06/10 06:01:25;;;;;;;20.10;3.47;;;;;;;16.56;71.96;100460.88;5027801;28;20037;-78
2022/06/10 06:03:50;;;;;;;23.80;3.50;;;;;;;16.43;71.75;100456.41;5027623;28;20091;-77
2022/06/10 06:06:16;;;;;;;16.98;3.55;;;;;;;16.61;70.73;100466.47;4996077;28;20033;-77
2022/06/10 06:08:41;;;;;;;13.50;3.67;;;;;;;17.00;68.52;100458.19;5010715;28;22204;-78
2022/06/10 06:11:07;;;;;;;23.45;3.17;;;;;;;17.27;67.75;100458.72;5029770;28;20094;-76
2022/06/10 06:13:33;;;;;;;17.80;3.15;;;;;;;17.45;66.41;100431.53;5020216;28;20025;-76
2022/06/10 06:15:58;;;;;;;15.73;2.70;;;;;;;17.90;64.32;100463.78;5029826;28;20071;-76
2022/06/10 06:18:24;;;;;;;15.85;3.85;;;;;;;18.10;63.41;100459.91;5020947;28;20716;-77
2022/06/10 06:20:50;;;;;;;17.23;3.30;;;;;;;18.28;62.13;100461.75;5012156;28;20044;-77
2022/06/10 06:23:15;;;;;;;13.40;2.38;;;;;;;18.25;61.52;100449.44;4992568;28;20045;-76
2022/06/10 06:25:44;;;;;;;11.15;2.53;;;;;;;18.29;61.40;100461.50;5009382;28;20436;-76
2022/06/10 06:28:10;;;;;;;17.77;3.45;;;;;;;18.35;61.10;100466.00;5012037;28;20034;-78
2022/06/10 06:30:37;;;;;;;12.68;2.47;;;;;;;18.23;62.03;100462.44;4990902;28;20046;-78
2022/06/10 06:33:07;;;;;;;15.70;3.75;;;;;;;17.67;63.67;100460.94;5024499;28;20487;-78
2022/06/10 06:35:35;;;;;;;14.52;2.97;;;;;;;18.05;62.63;100463.34;4996276;28;20066;-76
2022/06/10 06:38:02;;;;;;;12.15;2.72;;;;;;;18.51;61.03;100466.41;4994746;28;20052;-76
2022/06/10 06:40:30;;;;;;;12.30;2.92;;;;;;;18.82;59.37;100455.19;5024629;28;20091;-76
2022/06/10 06:42:56;;;;;;;15.52;3.80;;;;;;;19.17;58.07;100458.94;5021703;28;20033;-76
2022/06/10 06:45:22;;;;;;;15.23;3.00;;;;;;;19.39;56.99;100459.13;5032648;28;20116;-76
2022/06/10 06:47:48;;;;;;;14.13;2.75;;;;;;;19.52;56.00;100456.94;5028386;28;20033;-76
2022/06/10 06:50:17;;;;;;;10.63;2.03;;;;;;;19.49;56.36;100454.69;5013270;28;20061;-76
2022/06/10 06:52:43;;;;;;;15.80;3.38;;;;;;;19.82;55.72;100455.06;5009626;28;20042;-77
2022/06/10 06:55:09;;;;;;;19.05;4.03;;;;;;;19.87;54.98;100458.75;5009099;28;20048;-75
2022/06/10 06:57:35;;;;;;;12.85;3.60;;;;;;;20.11;53.61;100450.41;5001687;28;20042;-77
2022/06/10 07:00:07;;;;;;;14.10;2.83;;;;;;;20.39;52.80;100471.38;5027160;28;20033;-77
2022/06/10 07:02:34;;;;;;;7.63;1.90;;;;;;;20.36;52.65;100469.13;5004324;28;20815;-77
2022/06/10 07:04:59;;;;;;;5.57;1.80;;;;;;;20.70;50.88;100461.78;4985534;28;20040;-77
2022/06/10 07:07:25;;;;;;;12.20;2.65;;;;;;;21.14;49.24;100471.97;5022462;28;20588;-78
2022/06/10 07:09:51;;;;;;;7.78;2.35;;;;;;;21.52;47.86;100469.22;5025140;28;20037;-76
2022/06/10 07:12:17;;;;;;;14.93;3.72;;;;;;;21.52;48.54;100462.91;5006700;28;20049;-77
2022/06/10 07:14:43;;;;;;;10.52;2.42;;;;;;;21.84;48.08;100463.00;5029447;28;20025;-77
2022/06/10 07:17:08;;;;;;;7.68;2.13;;;;;;;22.13;45.91;100463.56;5008861;28;20038;-76
2022/06/10 07:19:34;;;;;;;5.97;2.22;;;;;;;22.34;45.09;100467.31;5011180;28;20039;-76
2022/06/10 07:22:00;;;;;;;10.27;2.20;;;;;;;21.67;45.92;100467.72;5029967;28;20041;-76
2022/06/10 07:24:25;;;;;;;10.45;1.55;;;;;;;20.60;49.32;100473.38;5007036;28;20041;-76
2022/06/10 07:26:51;;;;;;;5.65;2.17;;;;;;;19.48;52.13;100465.84;5007343;28;20029;-78
2022/06/10 07:29:18;;;;;;;10.20;2.00;;;;;;;18.94;53.47;100476.13;5005623;28;20029;-76
2022/06/10 07:31:45;;;;;;;12.75;2.45;;;;;;;18.15;55.50;100468.22;5050579;28;20033;-76
2022/06/10 07:34:11;;;;;;;10.57;2.88;;;;;;;17.96;56.83;100478.34;5019894;28;20025;-76
2022/06/10 07:36:38;;;;;;;8.50;1.92;;;;;;;18.31;55.31;100470.28;5011174;28;20025;-76
2022/06/10 07:39:04;;;;;;;10.90;2.47;;;;;;;19.38;52.18;100474.66;4990820;28;20029;-76
2022/06/10 07:44:14;;;;;;;13.48;2.40;;;;;;;18.56;55.13;100475.50;5009800;28;20635;-76
2022/06/10 07:46:40;;;;;;;8.82;1.60;;;;;;;18.42;55.78;100487.69;5002350;28;20191;-75
2022/06/10 07:49:06;;;;;;;9.60;1.48;;;;;;;17.88;57.57;100465.88;5006838;28;20463;-76
2022/06/10 07:51:31;;;;;;;8.23;2.03;;;;;;;17.59;57.95;100481.09;5003334;28;20036;-76
2022/06/10 07:53:57;;;;;;;9.13;2.20;;;;;;;17.04;59.16;100484.69;5008563;28;20084;-75
2022/06/10 07:56:24;;;;;;;4.43;1.40;;;;;;;16.48;62.35;100493.72;5003140;28;20076;-77
2022/06/10 07:58:50;;;;;;;4.50;1.13;;;;;;;16.24;63.82;100490.75;5058674;28;20557;-76
2022/06/10 08:01:17;;;;;;;4.72;1.77;;;;;;;16.18;64.61;100488.94;4990066;28;20033;-77
2022/06/10 08:03:42;;;;;;;12.93;2.05;;;;;;;16.27;64.71;100489.50;5009872;28;20030;-76
2022/06/10 08:06:08;;;;;;;6.32;1.63;;;;;;;16.67;63.95;100500.03;5014068;28;20034;-76
2022/06/10 08:08:34;;;;;;;8.48;1.85;;;;;;;17.28;61.90;100490.25;5039505;28;20025;-76
2022/06/10 08:11:00;;;;;;;7.82;2.08;;;;;;;18.27;57.79;100490.84;5005431;28;20037;-76
2022/06/10 08:13:26;;;;;;;8.20;1.75;;;;;;;17.84;57.53;100483.75;5022344;28;20425;-75
2022/06/10 08:15:52;;;;;;;14.52;2.22;;;;;;;17.49;59.44;100497.97;5023560;28;20029;-75
2022/06/10 08:18:19;;;;;;;5.25;1.58;;;;;;;17.28;60.05;100498.41;4997350;28;20098;-76
2022/06/10 08:23:32;;;;;;;4.35;1.55;;;;;;;17.84;57.46;100486.47;5018606;28;20029;-75
2022/06/10 08:25:59;;;;;;;8.80;2.58;;;;;;;18.06;57.51;100488.66;5040257;28;20030;-76
2022/06/10 08:28:26;;;;;;;12.35;2.67;;;;;;;18.28;57.50;100489.78;5001921;28;20475;-76
2022/06/10 08:30:52;;;;;;;13.80;2.70;;;;;;;18.60;56.06;100479.44;4995370;28;20021;-75
2022/06/10 08:33:18;;;;;;;8.18;2.58;;;;;;;18.45;56.41;100470.88;5029898;28;20021;-76
2022/06/10 08:35:45;;;;;;;10.20;2.22;;;;;;;18.30;56.85;100482.22;4994135;28;20091;-76
2022/06/10 08:38:13;;;;;;;11.75;2.60;;;;;;;17.60;59.31;100482.78;4987429;28;20057;-76
2022/06/10 08:40:39;;;;;;;11.43;2.35;;;;;;;17.32;61.08;100480.59;5020727;28;20029;-76
2022/06/10 08:43:19;;;;;;;10.57;2.70;;;;;;;17.11;62.30;100471.00;5021331;28;20087;-76
2022/06/10 08:46:02;;;;;;;13.15;3.00;;;;;;;16.99;60.76;100464.66;5007284;28;20455;-77
2022/06/10 08:48:59;;;;;;;10.93;3.17;;;;;;;16.80;61.59;100472.78;5022136;28;20064;-77
2022/06/10 08:51:41;;;;;;;12.10;2.95;;;;;;;16.75;63.13;100467.19;5023267;28;20057;-77
2022/06/10 08:54:25;;;;;;;8.63;2.53;;;;;;;16.96;62.73;100468.66;5010584;28;20079;-78
2022/06/10 08:56:53;;;;;;;12.30;3.50;;;;;;;17.16;62.16;100445.91;5019795;28;20044;-79
2022/06/10 08:59:24;;;;;;;7.63;3.17;;;;;;;17.43;61.07;100454.53;5026502;28;20302;-79
2022/06/10 09:02:09;;;;;;;10.73;3.30;;;;;;;17.59;61.00;100443.03;5010959;28;20179;-77
2022/06/10 09:04:53;;;;;;;15.45;5.70;;;;;;;18.61;59.43;100451.13;5009890;28;20171;-78
2022/06/10 09:07:23;;;;;;;15.13;3.58;;;;;;;18.76;57.15;100445.25;5025693;28;20116;-77
2022/06/10 09:09:48;;;;;;;11.75;3.67;;;;;;;19.13;55.39;100450.38;5006036;28;20029;-77
2022/06/10 09:12:56;;;;;;;10.27;3.33;;;;;;;19.04;55.63;100449.13;5010822;28;20037;-78
2022/06/10 09:15:23;;;;;;;8.75;3.65;;;;;;;18.83;55.14;100437.75;5018231;28;20045;-78
2022/06/10 09:17:55;;;;;;;10.65;4.35;;;;;;;20.63;49.86;100437.34;5030072;28;20451;-78
2022/06/10 09:20:32;;;;;;;12.30;4.18;;;;;;;23.54;43.01;100470.53;5011900;28;20033;-79
2022/06/10 09:23:04;;;;;;;8.65;3.67;;;;;;;23.76;41.27;100459.38;4995356;28;20095;-78
2022/06/10 09:25:43;;;;;;;9.13;2.75;;;;;;;23.37;42.51;100449.63;5029189;28;20042;-78
2022/06/10 09:28:08;;;;;;;8.75;2.90;;;;;;;23.72;40.38;100445.38;5027713;28;20041;-78
2022/06/10 09:30:38;;;;;;;5.50;1.95;;;;;;;23.10;41.79;100462.66;5024023;28;20114;-79
2022/06/10 09:33:38;;;;;;;5.97;2.53;;;;;;;22.88;41.93;100454.56;5012379;28;20033;-77
2022/06/10 09:36:23;;;;;;;5.97;2.25;;;;;;;24.24;40.07;100452.59;5026589;28;20048;-78
2022/06/10 09:39:04;;;;;;;11.05;2.03;;;;;;;23.47;40.13;100452.41;5024007;28;20497;-77
2022/06/10 09:41:55;;;;;;;11.60;2.60;;;;;;;25.67;36.16;100445.94;5008977;28;20029;-77
2022/06/10 09:45:00;;;;;;;10.95;2.53;;;;;;;26.58;35.64;100432.59;4994595;28;21269;-78
2022/06/10 09:47:45;;;;;;;8.48;2.25;;;;;;;24.81;37.86;100445.13;5045056;28;20052;-78
2022/06/10 09:50:31;;;;;;;6.68;2.00;;;;;;;23.81;40.49;100442.91;5009489;28;20037;-77
2022/06/10 09:53:16;;;;;;;4.93;1.60;;;;;;;22.38;43.59;100453.91;4993819;28;20034;-77
2022/06/10 09:56:09;;;;;;;7.78;2.63;;;;;;;22.18;44.31;100454.56;5018654;28;20032;-79
2022/06/10 09:58:41;;;;;;;8.82;2.03;;;;;;;20.95;47.40;100452.28;5019520;28;20029;-79
2022/06/10 10:01:25;;;;;;;5.75;1.85;;;;;;;20.27;48.90;100471.44;5010444;28;20041;-83
2022/06/10 10:03:51;;;;;;;7.78;2.28;;;;;;;22.41;45.39;100474.50;5037793;28;20588;-78
2022/06/10 10:06:42;;;;;;;7.00;2.08;;;;;;;24.08;41.79;100440.78;5000907;28;20038;-82
2022/06/10 10:09:08;;;;;;;5.03;1.48;;;;;;;23.80;41.33;100444.84;5005610;28;20068;-80
2022/06/10 10:12:01;;;;;;;3.72;1.67;;;;;;;22.03;44.35;100451.69;5000973;28;20463;-82
2022/06/10 10:14:41;;;;;;;5.90;2.35;;;;;;;22.04;43.19;100445.94;5019675;28;20656;-78
2022/06/10 10:17:28;;;;;;;4.22;2.08;;;;;;;25.31;37.14;100446.09;5017264;28;20403;-78
2022/06/10 10:20:17;;;;;;;3.72;1.77;;;;;;;25.53;36.36;100450.41;5019638;28;20538;-80
2022/06/10 10:23:15;;;;;;;4.20;1.75;;;;;;;24.20;38.43;100462.47;5021260;28;20105;-80
2022/06/10 10:25:44;;;;;;;8.82;2.20;;;;;;;25.79;35.74;100449.16;5042882;28;20128;-80
2022/06/10 10:28:17;;;;;;;8.77;2.45;;;;;;;23.32;39.43;100470.72;5009285;28;20057;-81
2022/06/10 10:30:49;;;;;;;;;;;;;;;24.03;39.19;100473.72;5007765;28;20156;-80
2022/06/10 10:33:15;;;;;;;5.47;1.80;;;;;;;26.67;35.03;100463.13;5015326;28;20358;-83
2022/06/10 10:35:43;;;;;;;7.00;2.55;;;;;;;25.57;35.93;100457.00;5021775;28;20052;-79
2022/06/10 10:38:12;;;;;;;7.00;2.05;;;;;;;23.99;39.01;100456.13;5022087;28;20041;-78
2022/06/10 10:40:42;;;;;;;7.57;2.22;;;;;;;23.70;37.95;100456.56;5012181;28;20075;-81
2022/06/10 10:43:22;;;;;;;5.15;1.83;;;;;;;22.41;40.19;100463.53;5007241;28;20052;-79
2022/06/10 10:45:56;;;;;;;10.00;2.10;;;;;;;23.01;40.44;100456.84;5009973;28;20041;-77
2022/06/10 10:48:31;;;;;;;8.05;2.05;;;;;;;25.86;35.24;100457.97;5027042;28;20546;-77
2022/06/10 10:51:20;;;;;;;4.93;1.67;;;;;;;27.84;31.88;100469.25;4997099;28;20087;-77
2022/06/10 10:53:50;;;;;;;5.72;1.83;;;;;;;28.75;29.12;100470.84;4992643;28;20379;-77
2022/06/10 10:56:17;;;;;;;8.45;2.15;;;;;;;28.69;28.43;100461.81;5029468;28;20037;-77
2022/06/10 10:58:52;;;;;;;10.52;2.67;;;;;;;26.44;32.66;100470.22;5030650;28;20116;-78
2022/06/10 11:01:43;;;;;;;5.72;2.30;;;;;;;26.22;32.77;100457.69;4993355;28;20040;-79
2022/06/10 11:04:19;;;;;;;4.03;1.40;;;;;;;23.76;36.93;100454.69;5010522;28;20030;-77
2022/06/10 11:06:45;;;;;;;10.40;1.77;;;;;;;23.22;39.33;100455.03;5031347;28;20038;-78
2022/06/10 11:09:17;;;;;;;6.53;1.98;;;;;;;25.49;35.81;100432.81;5010348;28;20028;-78
2022/06/10 11:11:44;;;;;;;7.88;1.67;;;;;;;23.79;37.93;100451.44;5028640;28;20029;-79
2022/06/10 11:14:35;;;;;;;8.20;2.08;;;;;;;22.19;41.32;100450.75;5014219;28;20544;-76
2022/06/10 11:17:01;;;;;;;5.65;1.88;;;;;;;21.14;44.01;100455.56;4996872;28;20132;-76
2022/06/10 11:19:49;;;;;;;8.38;1.88;;;;;;;21.00;44.49;100450.47;5014462;28;20563;-76
2022/06/10 11:22:19;;;;;;;4.57;1.85;;;;;;;23.42;40.14;100463.38;5011609;28;20029;-76
2022/06/10 11:24:52;;;;;;;6.70;2.15;;;;;;;26.50;33.38;100442.28;5015177;28;20021;-77
2022/06/10 11:27:19;;;;;;;9.85;2.35;;;;;;;24.89;36.22;100450.06;5029956;28;20037;-76
2022/06/10 11:29:58;;;;;;;5.63;1.95;;;;;;;23.27;38.82;100455.88;4999008;28;20475;-76
2022/06/10 11:32:27;;;;;;;5.50;1.75;;;;;;;22.53;39.68;100445.81;4993912;28;20493;-76
2022/06/10 11:34:59;;;;;;;6.55;2.47;;;;;;;22.29;41.11;100464.53;5029464;28;20463;-76
2022/06/10 11:37:36;;;;;;;6.95;2.03;;;;;;;22.98;41.02;100471.09;5031695;28;20029;-78
2022/06/10 11:40:13;;;;;;;9.85;2.50;;;;;;;25.84;35.55;100473.94;4998556;28;20069;-77
2022/06/10 11:42:50;;;;;;;6.43;2.20;;;;;;;27.60;32.10;100456.28;5024684;28;20033;-77
2022/06/10 11:45:18;;;;;;;6.32;2.65;;;;;;;28.49;29.74;100455.50;5000122;28;20033;-76
2022/06/10 11:47:58;;;;;;;6.95;2.53;;;;;;;28.29;30.70;100480.72;5032632;28;20459;-78
2022/06/10 11:50:30;;;;;;;5.32;1.90;;;;;;;28.65;30.13;100469.06;5031467;28;20092;-76
2022/06/10 11:53:01;;;;;;;5.17;2.23;;;;;;;28.23;31.29;100457.03;4997135;28;20483;-78
2022/06/10 11:55:30;;;;;;;9.30;2.33;;;;;;;28.13;30.88;100465.47;4998571;28;20278;-77
2022/06/10 12:00:55;;;;;;;5.32;1.63;;;;;;;21.80;41.35;100469.22;5030279;28;20033;-77